createdAt,value
2019-02-02T00:02:00.943Z,18.77
2019-02-02T00:04:30.903Z,17.37
2019-02-02T00:07:00.579Z,18.43
2019-02-02T00:09:30.526Z,18.23
2019-02-02T00:12:00.577Z,18.05
2019-02-02T00:14:30.285Z,19.45
2019-02-02T00:16:59.955Z,18.30
2019-02-02T00:19:29.654Z,17.70
2019-02-02T00:21:59.323Z,18.00
2019-02-02T00:24:29.253Z,18.33
2019-02-02T00:26:58.928Z,19.27
2019-02-02T00:29:28.859Z,18.55
2019-02-02T00:31:58.632Z,18.15
2019-02-02T00:34:28.319Z,18.48
2019-02-02T00:36:59.247Z,18.03
2019-02-02T00:39:29.193Z,17.37
2019-02-02T00:41:58.919Z,19.33
2019-02-02T00:44:28.689Z,17.87
2019-02-02T00:46:59.119Z,19.02
2019-02-02T00:49:28.821Z,18.83
2019-02-02T00:51:58.605Z,19.27
2019-02-02T00:54:28.298Z,18.40
2019-02-02T00:56:58.055Z,17.97
2019-02-02T00:59:27.749Z,19.40
2019-02-02T01:01:57.509Z,17.87
2019-02-02T01:04:27.201Z,17.93
2019-02-02T01:06:57.199Z,19.97
2019-02-02T01:09:26.890Z,18.00
2019-02-02T01:11:56.715Z,18.98
2019-02-02T01:14:26.470Z,17.07
2019-02-02T01:16:56.750Z,18.67
2019-02-02T01:19:26.679Z,18.60
2019-02-02T01:21:56.509Z,17.95
2019-02-02T01:24:26.888Z,18.37
2019-02-02T01:26:56.570Z,17.97
2019-02-02T01:29:26.256Z,18.35
2019-02-02T01:31:56.187Z,18.52
2019-02-02T01:34:25.868Z,16.53
2019-02-02T01:36:55.556Z,18.27
2019-02-02T01:39:25.554Z,19.35
2019-02-02T01:41:55.258Z,16.53
2019-02-02T01:44:24.955Z,17.47
2019-02-02T01:46:54.881Z,17.70
2019-02-02T01:49:24.908Z,17.25
2019-02-02T01:51:54.602Z,17.73
2019-02-02T01:54:24.269Z,19.03
2019-02-02T01:56:53.944Z,17.60
2019-02-02T01:59:23.640Z,17.20
2019-02-02T02:01:53.384Z,16.48
2019-02-02T02:04:23.071Z,17.20
2019-02-02T02:06:52.761Z,18.10
2019-02-02T02:09:22.437Z,17.17
2019-02-02T02:11:52.114Z,18.57
2019-02-02T02:14:21.860Z,17.57
2019-02-02T02:16:51.528Z,17.63
2019-02-02T02:19:21.284Z,16.80
2019-02-02T02:21:50.960Z,15.63
2019-02-02T02:24:20.654Z,16.15
2019-02-02T02:26:50.633Z,17.37
2019-02-02T02:29:20.651Z,16.97
2019-02-02T02:31:50.343Z,17.47
2019-02-02T02:34:20.027Z,17.10
2019-02-02T02:36:49.979Z,17.50
2019-02-02T02:39:19.659Z,16.67
2019-02-02T02:41:49.328Z,16.55
2019-02-02T02:44:19.434Z,16.10
2019-02-02T02:46:49.097Z,16.40
2019-02-02T02:49:18.781Z,16.83
2019-02-02T02:51:48.528Z,16.83
2019-02-02T02:54:18.216Z,17.63
2019-02-02T02:56:48.157Z,17.10
2019-02-02T02:59:17.834Z,17.02
2019-02-02T03:01:47.643Z,17.10
2019-02-02T03:04:17.367Z,17.37
2019-02-02T03:06:47.037Z,16.33
2019-02-02T03:09:16.769Z,17.23
2019-02-02T03:11:46.715Z,17.20
2019-02-02T03:14:16.816Z,18.30
2019-02-02T03:16:46.559Z,17.63
2019-02-02T03:19:16.340Z,19.97
2019-02-02T03:21:46.038Z,17.37
2019-02-02T03:24:15.697Z,17.57
2019-02-02T03:26:45.389Z,16.97
2019-02-02T03:29:15.128Z,17.33
2019-02-02T03:31:48.446Z,17.73
2019-02-02T03:34:16.628Z,17.37
2019-02-02T03:36:46.319Z,18.53
2019-02-02T03:39:16.050Z,17.73
2019-02-02T03:41:45.975Z,17.37
2019-02-02T03:44:15.653Z,16.70
2019-02-02T03:46:45.705Z,17.63
2019-02-02T03:49:15.372Z,18.30
2019-02-02T03:51:45.433Z,17.50
2019-02-02T03:54:15.109Z,17.90
2019-02-02T03:56:44.782Z,16.93
2019-02-02T03:59:14.460Z,17.53
2019-02-02T04:01:44.145Z,16.90
2019-02-02T04:04:14.164Z,16.70
2019-02-02T04:06:43.850Z,17.90
2019-02-02T04:09:13.540Z,18.12
2019-02-02T04:11:43.654Z,16.67
2019-02-02T04:14:13.934Z,18.27
2019-02-02T04:16:43.695Z,17.57
2019-02-02T04:19:13.653Z,16.50
2019-02-02T04:21:43.343Z,17.15
2019-02-02T04:24:13.085Z,17.43
2019-02-02T04:26:43.009Z,16.57
2019-02-02T04:29:17.913Z,16.73
2019-02-02T04:31:44.354Z,15.87
2019-02-02T04:34:14.100Z,15.90
2019-02-02T04:36:44.862Z,15.67
2019-02-02T04:39:14.616Z,16.47
2019-02-02T04:41:44.646Z,16.00
2019-02-02T04:44:14.314Z,15.67
2019-02-02T04:46:44.347Z,16.42
2019-02-02T04:49:14.394Z,17.60
2019-02-02T04:51:44.070Z,15.63
2019-02-02T04:54:13.982Z,15.50
2019-02-02T04:56:43.744Z,15.90
2019-02-02T04:59:14.631Z,16.73
2019-02-02T05:01:44.310Z,15.68
2019-02-02T05:04:14.053Z,16.20
2019-02-02T05:06:43.808Z,17.27
2019-02-02T05:09:13.551Z,16.15
2019-02-02T05:11:43.238Z,16.20
2019-02-02T05:14:12.907Z,15.93
2019-02-02T05:16:42.585Z,17.60
2019-02-02T05:19:12.283Z,17.47
2019-02-02T05:21:42.221Z,16.17
2019-02-02T05:24:11.894Z,16.97
2019-02-02T05:26:41.593Z,16.83
2019-02-02T05:29:11.643Z,16.57
2019-02-02T05:31:41.499Z,16.77
2019-02-02T05:34:11.180Z,16.90
2019-02-02T05:36:40.868Z,16.87
2019-02-02T05:39:10.898Z,16.70
2019-02-02T05:41:40.658Z,16.40
2019-02-02T05:44:10.599Z,16.50
2019-02-02T05:46:40.278Z,16.20
2019-02-02T05:49:09.946Z,16.07
2019-02-02T05:51:39.811Z,16.10
2019-02-02T05:54:09.765Z,16.73
2019-02-02T05:56:39.697Z,16.07
2019-02-02T05:59:09.373Z,15.97
2019-02-02T06:01:39.785Z,16.10
2019-02-02T06:04:09.719Z,15.50
2019-02-02T06:06:39.403Z,16.50
2019-02-02T06:09:09.229Z,14.77
2019-02-02T06:11:38.926Z,14.93
2019-02-02T06:14:08.592Z,15.77
2019-02-02T06:16:38.563Z,16.03
2019-02-02T06:19:08.246Z,15.50
2019-02-02T06:21:37.949Z,15.85
2019-02-02T06:24:07.623Z,14.90
2019-02-02T06:26:37.542Z,15.30
2019-02-02T06:29:07.238Z,15.10
2019-02-02T06:31:36.925Z,15.17
2019-02-02T06:34:06.961Z,16.02
2019-02-02T06:36:36.976Z,14.27
2019-02-02T06:39:08.271Z,15.05
2019-02-02T06:41:38.190Z,15.13
2019-02-02T06:44:08.222Z,15.53
2019-02-02T06:46:43.620Z,15.00
2019-02-02T06:49:09.767Z,15.53
2019-02-02T06:51:39.912Z,15.57
2019-02-02T06:54:09.911Z,15.90
2019-02-02T06:56:39.678Z,17.37
2019-02-02T06:59:10.414Z,16.82
2019-02-02T07:01:40.097Z,16.73
2019-02-02T07:04:09.862Z,17.40
2019-02-02T07:06:39.814Z,17.23
2019-02-02T07:09:10.019Z,18.20
2019-02-02T07:11:39.711Z,19.67
2019-02-02T07:14:09.387Z,17.83
2019-02-02T07:16:39.228Z,18.57
2019-02-02T07:19:08.917Z,19.43
2019-02-02T07:21:38.604Z,18.97
2019-02-02T07:24:08.269Z,19.42
2019-02-02T07:26:38.193Z,18.90
2019-02-02T07:29:07.881Z,19.57
2019-02-02T07:31:37.912Z,20.37
2019-02-02T07:34:07.830Z,19.95
2019-02-02T07:36:37.525Z,21.60
2019-02-02T07:39:08.336Z,22.07
2019-02-02T07:41:40.994Z,20.88
2019-02-02T07:44:09.399Z,21.07
2019-02-02T07:46:39.435Z,21.12
2019-02-02T07:49:09.183Z,24.10
2019-02-02T07:51:39.160Z,24.63
2019-02-02T07:54:08.827Z,23.10
2019-02-02T07:56:39.694Z,22.90
2019-02-02T07:59:09.444Z,23.23
2019-02-02T08:01:39.800Z,22.62
2019-02-02T08:04:09.547Z,23.37
2019-02-02T08:06:39.237Z,22.47
2019-02-02T08:09:09.760Z,22.20
2019-02-02T08:11:40.160Z,23.75
2019-02-02T08:14:11.475Z,23.27
2019-02-02T08:16:41.289Z,23.17
2019-02-02T08:19:11.224Z,24.50
2019-02-02T08:21:41.138Z,22.57
2019-02-02T08:24:11.070Z,22.47
2019-02-02T08:26:40.812Z,23.10
2019-02-02T08:29:10.517Z,22.35
2019-02-02T08:31:40.193Z,23.40
2019-02-02T08:34:09.890Z,22.40
2019-02-02T08:36:39.565Z,21.93
2019-02-02T08:39:10.691Z,23.63
2019-02-02T08:41:40.687Z,23.60
2019-02-02T08:44:10.467Z,24.13
2019-02-02T08:46:40.148Z,23.27
2019-02-02T08:49:09.919Z,23.90
2019-02-02T08:51:39.830Z,24.40
2019-02-02T08:54:09.571Z,23.67
2019-02-02T08:56:39.197Z,24.43
2019-02-02T08:59:08.880Z,24.07
2019-02-02T09:01:38.551Z,23.07
2019-02-02T09:04:08.294Z,22.90
2019-02-02T09:06:39.319Z,24.10
2019-02-02T09:09:10.006Z,23.57
2019-02-02T09:11:39.847Z,24.07
2019-02-02T09:14:10.343Z,22.97
2019-02-02T09:16:40.021Z,24.93
2019-02-02T09:19:10.017Z,23.67
2019-02-02T09:21:39.785Z,25.10
2019-02-02T09:24:09.823Z,24.60
2019-02-02T09:26:39.583Z,23.43
2019-02-02T09:29:10.512Z,23.53
2019-02-02T09:31:40.330Z,24.03
2019-02-02T09:34:10.283Z,24.47
2019-02-02T09:36:39.949Z,23.57
2019-02-02T09:39:09.651Z,23.92
2019-02-02T09:41:40.767Z,25.00
2019-02-02T09:44:10.993Z,23.62
2019-02-02T09:46:40.662Z,24.10
2019-02-02T09:49:10.845Z,23.77
2019-02-02T09:51:40.541Z,25.27
2019-02-02T09:54:10.238Z,25.17
2019-02-02T09:56:39.931Z,26.10
2019-02-02T09:59:09.930Z,26.10
2019-02-02T10:01:39.592Z,26.67
2019-02-02T10:04:09.286Z,25.08
2019-02-02T10:06:38.957Z,24.63
2019-02-02T10:09:10.598Z,26.43
2019-02-02T10:11:40.379Z,27.07
2019-02-02T10:14:10.066Z,25.82
2019-02-02T10:16:39.814Z,30.77
2019-02-02T10:19:09.521Z,30.67
2019-02-02T10:21:39.276Z,29.60
2019-02-02T10:24:08.961Z,26.23
2019-02-02T10:26:38.661Z,26.45
2019-02-02T10:29:08.346Z,27.10
2019-02-02T10:31:39.874Z,29.30
2019-02-02T10:34:12.278Z,28.83
2019-02-02T10:36:41.317Z,29.55
2019-02-02T10:39:12.080Z,28.90
2019-02-02T10:41:41.823Z,28.07
2019-02-02T10:44:11.884Z,28.87
2019-02-02T10:46:41.642Z,27.57
2019-02-02T10:49:11.402Z,26.35
2019-02-02T10:51:41.306Z,28.83
2019-02-02T10:54:10.983Z,27.03
2019-02-02T10:56:41.262Z,25.67
2019-02-02T10:59:11.272Z,27.80
2019-02-02T11:01:50.860Z,28.62
2019-02-02T11:04:12.671Z,29.23
2019-02-02T11:06:43.300Z,27.23
2019-02-02T11:09:13.037Z,27.23
2019-02-02T11:11:42.767Z,27.23
2019-02-02T11:14:12.791Z,27.13
2019-02-02T11:16:42.485Z,26.68
2019-02-02T11:19:12.273Z,28.03
2019-02-02T11:21:42.081Z,25.13
2019-02-02T11:24:12.338Z,26.83
2019-02-02T11:26:42.198Z,26.97
2019-02-02T11:29:13.003Z,27.00
2019-02-02T11:31:43.085Z,26.17
2019-02-02T11:34:12.778Z,25.13
2019-02-02T11:36:43.917Z,26.15
2019-02-02T11:39:13.760Z,26.57
2019-02-02T11:41:43.520Z,27.13
2019-02-02T11:44:13.219Z,25.73
2019-02-02T11:46:43.230Z,25.67
2019-02-02T11:49:12.986Z,27.87
2019-02-02T11:51:42.729Z,27.35
2019-02-02T11:54:12.422Z,26.73
2019-02-02T11:56:42.249Z,25.20
2019-02-02T11:59:12.025Z,26.45
2019-02-02T12:01:41.995Z,24.92
2019-02-02T12:04:11.857Z,26.40
2019-02-02T12:06:42.213Z,24.95
2019-02-02T12:09:11.955Z,25.30
2019-02-02T12:11:42.504Z,26.50
2019-02-02T12:14:12.188Z,28.43
2019-02-02T12:16:42.463Z,28.27
2019-02-02T12:19:12.166Z,27.25
2019-02-02T12:21:42.196Z,26.93
2019-02-02T12:24:15.862Z,26.43
2019-02-02T12:26:43.371Z,27.50
2019-02-02T12:29:13.419Z,28.47
2019-02-02T12:31:43.195Z,27.90
2019-02-02T12:34:12.921Z,26.57
2019-02-02T12:36:42.854Z,28.50
2019-02-02T12:39:13.445Z,29.67
2019-02-02T12:41:43.306Z,28.23
2019-02-02T12:44:13.397Z,29.00
2019-02-02T12:46:43.067Z,29.35
2019-02-02T12:49:13.075Z,28.53
2019-02-02T12:51:43.091Z,29.10
2019-02-02T12:54:12.798Z,29.30
2019-02-02T12:56:42.483Z,29.05
2019-02-02T12:59:12.193Z,29.00
2019-02-02T13:01:41.958Z,29.60
2019-02-02T13:04:11.659Z,30.77
2019-02-02T13:06:41.402Z,29.50
2019-02-02T13:09:11.470Z,28.47
2019-02-02T13:11:41.152Z,28.60
2019-02-02T13:14:10.921Z,28.10
2019-02-02T13:16:40.601Z,29.77
2019-02-02T13:19:10.348Z,29.00
2019-02-02T13:21:40.027Z,29.15
2019-02-02T13:24:09.963Z,28.17
2019-02-02T13:26:39.755Z,28.23
2019-02-02T13:29:09.527Z,29.80
2019-02-02T13:31:39.555Z,29.03
2019-02-02T13:34:09.624Z,28.65
2019-02-02T13:36:39.327Z,28.30
2019-02-02T13:39:11.408Z,27.67
2019-02-02T13:41:41.720Z,28.90
2019-02-02T13:44:11.420Z,28.50
2019-02-02T13:46:41.437Z,28.17
2019-02-02T13:49:11.521Z,27.37
2019-02-02T13:51:41.225Z,28.07
2019-02-02T13:54:11.082Z,27.90
2019-02-02T13:56:40.853Z,28.32
2019-02-02T13:59:11.434Z,27.32
2019-02-02T14:01:42.437Z,28.60
2019-02-02T14:04:12.304Z,29.17
2019-02-02T14:06:41.976Z,28.47
2019-02-02T14:09:11.662Z,28.80
2019-02-02T14:11:41.344Z,27.30
2019-02-02T14:14:11.081Z,28.90
2019-02-02T14:16:40.759Z,27.73
2019-02-02T14:19:10.775Z,28.07
2019-02-02T14:21:40.481Z,27.77
2019-02-02T14:24:10.155Z,27.60
2019-02-02T14:26:39.840Z,26.42
2019-02-02T14:29:09.769Z,28.13
2019-02-02T14:31:39.726Z,26.27
2019-02-02T14:34:09.399Z,26.30
2019-02-02T14:36:39.343Z,26.25
2019-02-02T14:39:10.371Z,26.77
2019-02-02T14:41:40.082Z,27.07
2019-02-02T14:44:09.884Z,27.10
2019-02-02T14:46:39.647Z,27.60
2019-02-02T14:49:09.394Z,25.90
2019-02-02T14:51:40.056Z,27.83
2019-02-02T14:54:09.748Z,25.80
2019-02-02T14:56:39.526Z,26.17
2019-02-02T14:59:09.221Z,26.33
2019-02-02T15:01:39.022Z,24.80
2019-02-02T15:04:08.791Z,24.72
2019-02-02T15:06:38.427Z,26.10
2019-02-02T15:09:08.854Z,25.55
2019-02-02T15:11:40.006Z,25.40
2019-02-02T15:14:09.702Z,25.50
2019-02-02T15:16:39.827Z,25.50
2019-02-02T15:19:09.526Z,25.07
2019-02-02T15:21:39.456Z,24.17
2019-02-02T15:24:09.380Z,25.10
2019-02-02T15:26:39.147Z,24.20
2019-02-02T15:29:09.818Z,25.52
2019-02-02T15:31:39.513Z,24.07
2019-02-02T15:34:09.187Z,23.07
2019-02-02T15:36:39.110Z,24.92
2019-02-02T15:39:10.200Z,23.53
2019-02-02T15:41:39.879Z,23.60
2019-02-02T15:44:09.699Z,23.10
2019-02-02T15:46:48.727Z,22.93
2019-02-02T15:49:11.744Z,23.97
2019-02-02T15:51:41.615Z,24.17
2019-02-02T15:54:11.556Z,23.73
2019-02-02T15:56:41.333Z,22.22
2019-02-02T15:59:11.020Z,24.33
2019-02-02T16:01:40.956Z,22.03
2019-02-02T16:04:10.663Z,23.60
2019-02-02T16:06:40.659Z,23.00
2019-02-02T16:09:10.783Z,23.33
2019-02-02T16:11:40.465Z,24.10
2019-02-02T16:14:10.173Z,23.00
2019-02-02T16:16:39.886Z,23.53
2019-02-02T16:19:10.475Z,24.17
2019-02-02T16:21:40.519Z,24.50
2019-02-02T16:24:10.186Z,24.80
2019-02-02T16:26:39.978Z,23.33
2019-02-02T16:29:09.740Z,23.53
2019-02-02T16:31:39.775Z,22.43
2019-02-02T16:34:09.890Z,23.70
2019-02-02T16:36:40.160Z,22.67
2019-02-02T16:39:10.167Z,23.90
2019-02-02T16:41:39.872Z,23.03
2019-02-02T16:44:09.721Z,23.50
2019-02-02T16:46:39.954Z,23.63
2019-02-02T16:49:10.082Z,23.13
2019-02-02T16:51:40.017Z,21.57
2019-02-02T16:54:10.479Z,25.17
2019-02-02T16:56:40.744Z,23.13
2019-02-02T16:59:10.650Z,24.90
2019-02-02T17:01:40.476Z,22.63
2019-02-02T17:04:15.930Z,23.33
2019-02-02T17:06:41.827Z,23.30
2019-02-02T17:09:13.963Z,23.45
2019-02-02T17:11:43.190Z,23.73
2019-02-02T17:14:12.865Z,24.03
2019-02-02T17:16:43.839Z,23.87
2019-02-02T17:19:13.767Z,23.63
2019-02-02T17:21:43.484Z,24.93
2019-02-02T17:24:13.266Z,24.20
2019-02-02T17:26:43.037Z,23.85
2019-02-02T17:29:12.878Z,25.83
2019-02-02T17:31:42.648Z,24.90
2019-02-02T17:34:12.418Z,24.30
2019-02-02T17:36:42.406Z,23.13
2019-02-02T17:39:12.369Z,25.90
2019-02-02T17:41:42.078Z,25.00
2019-02-02T17:44:11.760Z,24.10
2019-02-02T17:46:41.441Z,24.67
2019-02-02T17:49:11.129Z,25.50
2019-02-02T17:51:40.963Z,24.83
2019-02-02T17:54:10.725Z,24.92
2019-02-02T17:56:40.430Z,25.68
2019-02-02T17:59:10.417Z,24.43
2019-02-02T18:01:40.166Z,24.20
2019-02-02T18:04:09.855Z,25.20
2019-02-02T18:06:39.542Z,26.20
2019-02-02T18:09:09.402Z,25.17
2019-02-02T18:11:39.131Z,24.43
2019-02-02T18:14:08.821Z,24.70
2019-02-02T18:16:38.536Z,24.80
2019-02-02T18:19:08.758Z,24.47
2019-02-02T18:21:38.476Z,25.50
2019-02-02T18:24:08.627Z,24.90
2019-02-02T18:26:38.314Z,24.30
2019-02-02T18:29:08.059Z,24.70
2019-02-02T18:31:38.216Z,22.90
2019-02-02T18:34:07.895Z,24.27
2019-02-02T18:36:38.191Z,23.38
2019-02-02T18:39:09.268Z,25.03
2019-02-02T18:41:39.237Z,22.90
2019-02-02T18:44:08.935Z,24.43
2019-02-02T18:46:39.074Z,24.77
2019-02-02T18:49:08.834Z,24.63
2019-02-02T18:51:38.649Z,24.40
2019-02-02T18:54:08.590Z,23.90
2019-02-02T18:56:38.766Z,24.72
2019-02-02T18:59:09.383Z,23.50
2019-02-02T19:01:39.072Z,24.37
2019-02-02T19:04:08.871Z,24.43
2019-02-02T19:06:38.893Z,24.70
2019-02-02T19:09:09.615Z,24.40
2019-02-02T19:11:39.694Z,24.10
2019-02-02T19:14:10.440Z,26.23
2019-02-02T19:16:42.557Z,25.17
2019-02-02T19:19:12.948Z,26.27
2019-02-02T19:21:43.993Z,24.87
2019-02-02T19:24:15.131Z,25.13
2019-02-02T19:26:46.071Z,23.90
2019-02-02T19:29:17.027Z,25.35
2019-02-02T19:31:49.001Z,24.67
2019-02-02T19:34:20.557Z,24.63
2019-02-02T19:36:54.254Z,24.55
2019-02-02T19:39:25.721Z,25.40
2019-02-02T19:41:57.862Z,24.20
2019-02-02T19:44:29.790Z,24.90
2019-02-02T19:47:02.092Z,24.13
2019-02-02T19:49:34.752Z,24.83
2019-02-02T19:52:06.321Z,26.53
2019-02-02T19:54:37.720Z,25.35
2019-02-02T19:57:08.601Z,26.87
2019-02-02T19:59:40.487Z,27.60
2019-02-02T20:02:12.428Z,25.80
2019-02-02T20:04:44.485Z,25.70
2019-02-02T20:07:17.095Z,26.23
2019-02-02T20:09:48.129Z,25.67
2019-02-02T20:12:19.916Z,29.50
2019-02-02T20:14:51.373Z,27.10
2019-02-02T20:17:22.595Z,27.30
2019-02-02T20:19:54.855Z,26.20
2019-02-02T20:22:27.037Z,26.30
2019-02-02T20:24:59.247Z,27.40
2019-02-02T20:27:30.183Z,25.77
2019-02-02T20:30:01.151Z,25.63
2019-02-02T20:32:33.189Z,25.90
2019-02-02T20:35:04.066Z,24.92
2019-02-02T20:37:36.633Z,26.40
2019-02-02T20:40:09.191Z,25.80
2019-02-02T20:42:39.991Z,26.00
2019-02-02T20:45:12.886Z,25.13
2019-02-02T20:47:44.074Z,27.25
2019-02-02T20:50:17.031Z,24.92
2019-02-02T20:52:48.132Z,25.05
2019-02-02T20:55:26.912Z,25.37
2019-02-02T20:57:58.270Z,25.00
2019-02-02T21:00:30.131Z,26.73
2019-02-02T21:03:02.307Z,24.92
2019-02-02T21:05:34.138Z,25.02
2019-02-02T21:08:05.635Z,24.00
2019-02-02T21:10:37.252Z,25.43
2019-02-02T21:13:08.579Z,25.33
2019-02-02T21:15:40.380Z,24.92
2019-02-02T21:18:11.942Z,23.50
2019-02-02T21:20:42.661Z,23.50
2019-02-02T21:23:14.060Z,26.60
2019-02-02T21:25:45.376Z,26.30
2019-02-02T21:28:17.066Z,26.07
2019-02-02T21:30:47.853Z,29.03
2019-02-02T21:33:19.164Z,28.07
2019-02-02T21:35:49.614Z,28.77
2019-02-02T21:38:21.580Z,29.80
2019-02-02T21:40:53.150Z,29.98
2019-02-02T21:43:24.742Z,30.83
2019-02-02T21:45:54.580Z,29.17
2019-02-02T21:48:25.169Z,31.97
2019-02-02T21:50:55.168Z,30.25
2019-02-02T21:53:25.323Z,32.03
2019-02-02T21:55:55.262Z,30.87
2019-02-02T21:58:24.965Z,31.23
2019-02-02T22:00:55.352Z,29.72
2019-02-02T22:03:25.467Z,32.07
2019-02-02T22:05:55.982Z,28.95
2019-02-02T22:08:25.846Z,29.03
2019-02-02T22:10:55.540Z,29.07
2019-02-02T22:13:25.527Z,27.27
2019-02-02T22:15:55.431Z,25.53
2019-02-02T22:18:25.394Z,26.20
2019-02-02T22:20:55.283Z,25.03
2019-02-02T22:23:26.046Z,25.17
2019-02-02T22:25:56.144Z,24.53
2019-02-02T22:28:25.954Z,23.27
2019-02-02T22:30:55.691Z,24.37
2019-02-02T22:33:25.663Z,21.65
2019-02-02T22:35:55.870Z,22.63
2019-02-02T22:38:25.803Z,21.23
2019-02-02T22:40:55.805Z,22.35
2019-02-02T22:43:25.570Z,21.57
2019-02-02T22:45:55.730Z,21.63
2019-02-02T22:48:25.439Z,23.50
2019-02-02T22:50:55.112Z,20.93
2019-02-02T22:53:24.865Z,21.52
2019-02-02T22:55:55.283Z,21.27
2019-02-02T22:58:25.201Z,20.77
2019-02-02T23:01:04.973Z,21.73
2019-02-02T23:03:44.660Z,19.93
2019-02-02T23:06:40.267Z,21.67
2019-02-02T23:10:02.362Z,23.27
2019-02-02T23:12:43.282Z,21.53
2019-02-02T23:15:31.669Z,21.73
2019-02-02T23:18:01.347Z,22.37
2019-02-02T23:20:31.213Z,22.87
2019-02-02T23:23:01.102Z,22.48
2019-02-02T23:25:30.732Z,22.90
2019-02-02T23:28:00.680Z,23.20
2019-02-02T23:30:30.356Z,21.95
2019-02-02T23:33:00.104Z,21.75
2019-02-02T23:35:29.793Z,21.07
2019-02-02T23:37:59.565Z,21.67
2019-02-02T23:40:29.527Z,22.67
2019-02-02T23:42:59.193Z,22.17
2019-02-02T23:45:29.279Z,22.23
2019-02-02T23:47:58.957Z,22.70
2019-02-02T23:50:28.729Z,22.25
2019-02-02T23:52:58.403Z,21.37
2019-02-02T23:55:28.427Z,22.40
2019-02-02T23:57:58.103Z,21.07
